PWSweather.com
Personal Weather Stations
Station Observations
WXGLH1124
Southern Oaks, Indianapolis, IN 46217

Southern OaksIndianapolis, IN 46217

Lat: 39.65113, Lon: -86.16866

Elevation: 720

Station Type: Vantage Pro2

High Low Average
Temperature 34.9°F1.6°C 21.6°F-5.8°C 29.6°F-1.3°C
Dew Point 26.4°F-3.1°C 19.0°F-7.2°C 22.6°F-5.2°C
Winds 8.0 mph 12.9 kmh Calm Calm 1.0 mph S1.6 kmh S
Wind Gusts 11.0 mph17.7 kmh -- 4.0 mph6.4 kmh
Humidity 90% 58% 76%
Pressure 30.71 in1040.0 mb 30.37 in1028.4 mb -
Precipitation 0.00 in0.0 mm - -
Hour Temp Dew Point Humidity Winds Wind Gusts Pressure Precip Precip Rate Daily Precip Total
12:00 AM 29.6°F-1.3°C 25.9°F-3.4°C 86% Calm Calm 2.0 mph3.2 kmh 30.58 in1035.6 mb 0.00 in0.0 mm 0.00 in0.0 mm 0.00 in0.0 mm
12:05 AM 29.6°F-1.3°C 25.9°F-3.4°C 86% Calm Calm 1.0 mph1.6 kmh 30.58 in1035.6 mb 0.00 in0.0 mm 0.00 in0.0 mm 0.00 in0.0 mm
12:09 AM 29.7°F-1.3°C 25.8°F-3.4°C 85% Calm Calm 3.0 mph4.8 kmh 30.58 in1035.6 mb 0.00 in0.0 mm 0.00 in0.0 mm 0.00 in0.0 mm
12:14 AM 29.7°F-1.3°C 26.0°F-3.3°C 86% 1.0 mph NW1.6 kmh NW 2.0 mph3.2 kmh 30.58 in1035.6 mb 0.00 in0.0 mm 0.00 in0.0 mm 0.00 in0.0 mm
12:20 AM 29.7°F-1.3°C 26.0°F-3.3°C 86% Calm Calm -- 30.58 in1035.6 mb 0.00 in0.0 mm 0.00 in0.0 mm 0.00 in0.0 mm
12:25 AM 29.8°F-1.2°C 26.1°F-3.3°C 86% Calm Calm -- 30.59 in1035.9 mb 0.00 in0.0 mm 0.00 in0.0 mm 0.00 in0.0 mm
12:30 AM 29.8°F-1.2°C 26.1°F-3.3°C 86% Calm Calm 1.0 mph1.6 kmh 30.58 in1035.6 mb 0.00 in0.0 mm 0.00 in0.0 mm 0.00 in0.0 mm
12:35 AM 29.7°F-1.3°C 26.0°F-3.3°C 86% Calm Calm 1.0 mph1.6 kmh 30.58 in1035.6 mb 0.00 in0.0 mm 0.00 in0.0 mm 0.00 in0.0 mm
12:40 AM 29.7°F-1.3°C 26.0°F-3.3°C 86% Calm Calm 1.0 mph1.6 kmh 30.58 in1035.6 mb 0.00 in0.0 mm 0.00 in0.0 mm 0.00 in0.0 mm
12:44 AM 29.7°F-1.3°C 25.8°F-3.4°C 85% Calm Calm 1.0 mph1.6 kmh 30.58 in1035.6 mb 0.00 in0.0 mm 0.00 in0.0 mm 0.00 in0.0 mm
12:50 AM 29.7°F-1.3°C 26.0°F-3.3°C 86% Calm Calm -- 30.58 in1035.6 mb 0.00 in0.0 mm 0.00 in0.0 mm 0.00 in0.0 mm
12:55 AM 29.7°F-1.3°C 26.0°F-3.3°C 86% Calm Calm -- 30.58 in1035.6 mb 0.00 in0.0 mm 0.00 in0.0 mm 0.00 in0.0 mm
12:59 AM 29.6°F-1.3°C 25.7°F-3.5°C 85% Calm Calm -- 30.58 in1035.6 mb 0.00 in0.0 mm 0.00 in0.0 mm 0.00 in0.0 mm
01:04 AM 29.5°F-1.4°C 25.6°F-3.6°C 85% Calm Calm -- 30.58 in1035.6 mb 0.00 in0.0 mm 0.00 in0.0 mm 0.00 in0.0 mm
01:10 AM 29.4°F-1.4°C 25.5°F-3.6°C 85% Calm Calm -- 30.59 in1035.9 mb 0.00 in0.0 mm 0.00 in0.0 mm 0.00 in0.0 mm
01:15 AM 29.3°F-1.5°C 25.4°F-3.7°C 85% Calm Calm -- 30.58 in1035.6 mb 0.00 in0.0 mm 0.00 in0.0 mm 0.00 in0.0 mm
01:20 AM 29.2°F-1.6°C 25.3°F-3.7°C 85% Calm Calm -- 30.58 in1035.6 mb 0.00 in0.0 mm 0.00 in0.0 mm 0.00 in0.0 mm
01:25 AM 29.1°F-1.6°C 24.9°F-3.9°C 84% Calm Calm -- 30.59 in1035.9 mb 0.00 in0.0 mm 0.00 in0.0 mm 0.00 in0.0 mm
01:30 AM 28.9°F-1.7°C 25.0°F-3.9°C 85% Calm Calm -- 30.58 in1035.6 mb 0.00 in0.0 mm 0.00 in0.0 mm 0.00 in0.0 mm
01:35 AM 28.8°F-1.8°C 24.9°F-3.9°C 85% Calm Calm -- 30.59 in1035.9 mb 0.00 in0.0 mm 0.00 in0.0 mm 0.00 in0.0 mm
01:40 AM 28.6°F-1.9°C 24.4°F-4.2°C 84% Calm Calm -- 30.59 in1035.9 mb 0.00 in0.0 mm 0.00 in0.0 mm 0.00 in0.0 mm
01:45 AM 28.5°F-1.9°C 24.6°F-4.1°C 85% Calm Calm -- 30.58 in1035.6 mb 0.00 in0.0 mm 0.00 in0.0 mm 0.00 in0.0 mm
01:50 AM 28.3°F-2.1°C 24.4°F-4.2°C 85% Calm Calm -- 30.58 in1035.6 mb 0.00 in0.0 mm 0.00 in0.0 mm 0.00 in0.0 mm
01:55 AM 28.1°F-2.2°C 24.2°F-4.3°C 85% Calm Calm -- 30.59 in1035.9 mb 0.00 in0.0 mm 0.00 in0.0 mm 0.00 in0.0 mm
01:59 AM 27.9°F-2.3°C 24.0°F-4.4°C 85% Calm Calm -- 30.59 in1035.9 mb 0.00 in0.0 mm 0.00 in0.0 mm 0.00 in0.0 mm
02:05 AM 27.7°F-2.4°C 24.1°F-4.4°C 86% Calm Calm -- 30.59 in1035.9 mb 0.00 in0.0 mm 0.00 in0.0 mm 0.00 in0.0 mm
02:09 AM 27.5°F-2.5°C 23.9°F-4.5°C 86% Calm Calm -- 30.59 in1035.9 mb 0.00 in0.0 mm 0.00 in0.0 mm 0.00 in0.0 mm
02:14 AM 27.4°F-2.6°C 23.8°F-4.6°C 86% Calm Calm -- 30.59 in1035.9 mb 0.00 in0.0 mm 0.00 in0.0 mm 0.00 in0.0 mm
02:20 AM 27.3°F-2.6°C 23.7°F-4.6°C 86% Calm Calm -- 30.59 in1035.9 mb 0.00 in0.0 mm 0.00 in0.0 mm 0.00 in0.0 mm
02:25 AM 27.1°F-2.7°C 23.5°F-4.7°C 86% Calm Calm -- 30.60 in1036.2 mb 0.00 in0.0 mm 0.00 in0.0 mm 0.00 in0.0 mm
02:30 AM 26.9°F-2.8°C 23.6°F-4.7°C 87% Calm Calm -- 30.60 in1036.2 mb 0.00 in0.0 mm 0.00 in0.0 mm 0.00 in0.0 mm
02:35 AM 26.9°F-2.8°C 23.6°F-4.7°C 87% Calm Calm -- 30.60 in1036.2 mb 0.00 in0.0 mm 0.00 in0.0 mm 0.00 in0.0 mm
02:40 AM 26.8°F-2.9°C 23.5°F-4.7°C 87% Calm Calm -- 30.60 in1036.2 mb 0.00 in0.0 mm 0.00 in0.0 mm 0.00 in0.0 mm
02:45 AM 26.8°F-2.9°C 23.5°F-4.7°C 87% Calm Calm -- 30.61 in1036.6 mb 0.00 in0.0 mm 0.00 in0.0 mm 0.00 in0.0 mm
02:50 AM 26.8°F-2.9°C 23.5°F-4.7°C 87% Calm Calm -- 30.60 in1036.2 mb 0.00 in0.0 mm 0.00 in0.0 mm 0.00 in0.0 mm
02:55 AM 26.6°F-3.0°C 23.3°F-4.8°C 87% Calm Calm -- 30.60 in1036.2 mb 0.00 in0.0 mm 0.00 in0.0 mm 0.00 in0.0 mm
03:00 AM 26.5°F-3.1°C 23.2°F-4.9°C 87% Calm Calm -- 30.60 in1036.2 mb 0.00 in0.0 mm 0.00 in0.0 mm 0.00 in0.0 mm
03:04 AM 26.4°F-3.1°C 23.1°F-4.9°C 87% Calm Calm -- 30.61 in1036.6 mb 0.00 in0.0 mm 0.00 in0.0 mm 0.00 in0.0 mm
03:09 AM 26.3°F-3.2°C 23.0°F-5.0°C 87% Calm Calm -- 30.61 in1036.6 mb 0.00 in0.0 mm 0.00 in0.0 mm 0.00 in0.0 mm
03:15 AM 26.3°F-3.2°C 23.0°F-5.0°C 87% Calm Calm -- 30.61 in1036.6 mb 0.00 in0.0 mm 0.00 in0.0 mm 0.00 in0.0 mm
03:20 AM 26.3°F-3.2°C 23.0°F-5.0°C 87% Calm Calm -- 30.60 in1036.2 mb 0.00 in0.0 mm 0.00 in0.0 mm 0.00 in0.0 mm
03:24 AM 26.2°F-3.2°C 22.9°F-5.1°C 87% Calm Calm -- 30.61 in1036.6 mb 0.00 in0.0 mm 0.00 in0.0 mm 0.00 in0.0 mm
03:30 AM 26.0°F-3.3°C 22.7°F-5.2°C 87% Calm Calm -- 30.61 in1036.6 mb 0.00 in0.0 mm 0.00 in0.0 mm 0.00 in0.0 mm
03:35 AM 25.8°F-3.4°C 22.5°F-5.3°C 87% Calm Calm -- 30.61 in1036.6 mb 0.00 in0.0 mm 0.00 in0.0 mm 0.00 in0.0 mm
03:39 AM 25.6°F-3.6°C 22.3°F-5.4°C 87% Calm Calm -- 30.62 in1036.9 mb 0.00 in0.0 mm 0.00 in0.0 mm 0.00 in0.0 mm
03:45 AM 25.4°F-3.7°C 22.1°F-5.5°C 87% Calm Calm -- 30.62 in1036.9 mb 0.00 in0.0 mm 0.00 in0.0 mm 0.00 in0.0 mm
03:50 AM 25.2°F-3.8°C 21.9°F-5.6°C 87% Calm Calm -- 30.62 in1036.9 mb 0.00 in0.0 mm 0.00 in0.0 mm 0.00 in0.0 mm
03:55 AM 24.9°F-3.9°C 21.6°F-5.8°C 87% Calm Calm -- 30.63 in1037.3 mb 0.00 in0.0 mm 0.00 in0.0 mm 0.00 in0.0 mm
04:00 AM 24.6°F-4.1°C 21.3°F-5.9°C 87% Calm Calm -- 30.63 in1037.3 mb 0.00 in0.0 mm 0.00 in0.0 mm 0.00 in0.0 mm
04:05 AM 24.4°F-4.2°C 21.1°F-6.1°C 87% Calm Calm -- 30.64 in1037.6 mb 0.00 in0.0 mm 0.00 in0.0 mm 0.00 in0.0 mm
04:10 AM 24.2°F-4.3°C 20.9°F-6.2°C 87% Calm Calm -- 30.63 in1037.3 mb 0.00 in0.0 mm 0.00 in0.0 mm 0.00 in0.0 mm
04:14 AM 23.9°F-4.5°C 20.9°F-6.2°C 88% Calm Calm -- 30.63 in1037.3 mb 0.00 in0.0 mm 0.00 in0.0 mm 0.00 in0.0 mm
04:20 AM 23.7°F-4.6°C 20.7°F-6.3°C 88% Calm Calm -- 30.63 in1037.3 mb 0.00 in0.0 mm 0.00 in0.0 mm 0.00 in0.0 mm
04:25 AM 23.5°F-4.7°C 20.5°F-6.4°C 88% Calm Calm -- 30.63 in1037.3 mb 0.00 in0.0 mm 0.00 in0.0 mm 0.00 in0.0 mm
04:30 AM 23.3°F-4.8°C 20.3°F-6.5°C 88% Calm Calm -- 30.63 in1037.3 mb 0.00 in0.0 mm 0.00 in0.0 mm 0.00 in0.0 mm
04:34 AM 23.1°F-4.9°C 20.1°F-6.6°C 88% Calm Calm -- 30.63 in1037.3 mb 0.00 in0.0 mm 0.00 in0.0 mm 0.00 in0.0 mm
04:40 AM 23.0°F-5.0°C 20.0°F-6.7°C 88% Calm Calm -- 30.64 in1037.6 mb 0.00 in0.0 mm 0.00 in0.0 mm 0.00 in0.0 mm
04:45 AM 22.9°F-5.1°C 19.9°F-6.7°C 88% Calm Calm -- 30.63 in1037.3 mb 0.00 in0.0 mm 0.00 in0.0 mm 0.00 in0.0 mm
04:50 AM 22.8°F-5.1°C 20.1°F-6.6°C 89% Calm Calm -- 30.63 in1037.3 mb 0.00 in0.0 mm 0.00 in0.0 mm 0.00 in0.0 mm
04:55 AM 22.8°F-5.1°C 20.1°F-6.6°C 89% Calm Calm -- 30.64 in1037.6 mb 0.00 in0.0 mm 0.00 in0.0 mm 0.00 in0.0 mm
05:00 AM 22.9°F-5.1°C 20.2°F-6.6°C 89% Calm Calm -- 30.64 in1037.6 mb 0.00 in0.0 mm 0.00 in0.0 mm 0.00 in0.0 mm
05:04 AM 22.9°F-5.1°C 20.2°F-6.6°C 89% Calm Calm -- 30.64 in1037.6 mb 0.00 in0.0 mm 0.00 in0.0 mm 0.00 in0.0 mm
05:10 AM 22.9°F-5.1°C 20.2°F-6.6°C 89% Calm Calm -- 30.64 in1037.6 mb 0.00 in0.0 mm 0.00 in0.0 mm 0.00 in0.0 mm
05:15 AM 22.8°F-5.1°C 20.1°F-6.6°C 89% Calm Calm -- 30.63 in1037.3 mb 0.00 in0.0 mm 0.00 in0.0 mm 0.00 in0.0 mm
05:20 AM 22.8°F-5.1°C 20.1°F-6.6°C 89% Calm Calm -- 30.63 in1037.3 mb 0.00 in0.0 mm 0.00 in0.0 mm 0.00 in0.0 mm
05:25 AM 22.8°F-5.1°C 20.3°F-6.5°C 90% Calm Calm -- 30.63 in1037.3 mb 0.00 in0.0 mm 0.00 in0.0 mm 0.00 in0.0 mm
05:30 AM 22.8°F-5.1°C 20.3°F-6.5°C 90% Calm Calm -- 30.64 in1037.6 mb 0.00 in0.0 mm 0.00 in0.0 mm 0.00 in0.0 mm
05:35 AM 22.7°F-5.2°C 20.2°F-6.6°C 90% Calm Calm -- 30.64 in1037.6 mb 0.00 in0.0 mm 0.00 in0.0 mm 0.00 in0.0 mm
05:39 AM 22.7°F-5.2°C 20.2°F-6.6°C 90% Calm Calm -- 30.64 in1037.6 mb 0.00 in0.0 mm 0.00 in0.0 mm 0.00 in0.0 mm
05:45 AM 22.7°F-5.2°C 20.2°F-6.6°C 90% Calm Calm -- 30.64 in1037.6 mb 0.00 in0.0 mm 0.00 in0.0 mm 0.00 in0.0 mm
05:50 AM 22.7°F-5.2°C 20.2°F-6.6°C 90% Calm Calm -- 30.64 in1037.6 mb 0.00 in0.0 mm 0.00 in0.0 mm 0.00 in0.0 mm
05:55 AM 22.6°F-5.2°C 20.1°F-6.6°C 90% Calm Calm -- 30.64 in1037.6 mb 0.00 in0.0 mm 0.00 in0.0 mm 0.00 in0.0 mm
06:00 AM 22.5°F-5.3°C 20.0°F-6.7°C 90% Calm Calm -- 30.64 in1037.6 mb 0.00 in0.0 mm 0.00 in0.0 mm 0.00 in0.0 mm
06:05 AM 22.3°F-5.4°C 19.8°F-6.8°C 90% Calm Calm -- 30.64 in1037.6 mb 0.00 in0.0 mm 0.00 in0.0 mm 0.00 in0.0 mm
06:10 AM 22.1°F-5.5°C 19.6°F-6.9°C 90% Calm Calm -- 30.64 in1037.6 mb 0.00 in0.0 mm 0.00 in0.0 mm 0.00 in0.0 mm
06:15 AM 21.9°F-5.6°C 19.4°F-7.0°C 90% Calm Calm -- 30.64 in1037.6 mb 0.00 in0.0 mm 0.00 in0.0 mm 0.00 in0.0 mm
06:20 AM 21.8°F-5.7°C 19.3°F-7.1°C 90% Calm Calm -- 30.63 in1037.3 mb 0.00 in0.0 mm 0.00 in0.0 mm 0.00 in0.0 mm
06:25 AM 21.7°F-5.7°C 19.2°F-7.1°C 90% Calm Calm -- 30.63 in1037.3 mb 0.00 in0.0 mm 0.00 in0.0 mm 0.00 in0.0 mm
06:29 AM 21.6°F-5.8°C 19.1°F-7.2°C 90% Calm Calm -- 30.64 in1037.6 mb 0.00 in0.0 mm 0.00 in0.0 mm 0.00 in0.0 mm
06:35 AM 21.6°F-5.8°C 19.1°F-7.2°C 90% Calm Calm -- 30.64 in1037.6 mb 0.00 in0.0 mm 0.00 in0.0 mm 0.00 in0.0 mm
06:40 AM 21.7°F-5.7°C 19.2°F-7.1°C 90% Calm Calm -- 30.64 in1037.6 mb 0.00 in0.0 mm 0.00 in0.0 mm 0.00 in0.0 mm
06:45 AM 21.8°F-5.7°C 19.3°F-7.1°C 90% Calm Calm -- 30.64 in1037.6 mb 0.00 in0.0 mm 0.00 in0.0 mm 0.00 in0.0 mm
06:50 AM 21.8°F-5.7°C 19.3°F-7.1°C 90% Calm Calm -- 30.65 in1037.9 mb 0.00 in0.0 mm 0.00 in0.0 mm 0.00 in0.0 mm
06:55 AM 21.8°F-5.7°C 19.3°F-7.1°C 90% Calm Calm -- 30.65 in1037.9 mb 0.00 in0.0 mm 0.00 in0.0 mm 0.00 in0.0 mm
07:00 AM 21.8°F-5.7°C 19.3°F-7.1°C 90% Calm Calm -- 30.65 in1037.9 mb 0.00 in0.0 mm 0.00 in0.0 mm 0.00 in0.0 mm
07:05 AM 21.7°F-5.7°C 19.2°F-7.1°C 90% Calm Calm -- 30.65 in1037.9 mb 0.00 in0.0 mm 0.00 in0.0 mm 0.00 in0.0 mm
07:10 AM 21.7°F-5.7°C 19.2°F-7.1°C 90% Calm Calm -- 30.65 in1037.9 mb 0.00 in0.0 mm 0.00 in0.0 mm 0.00 in0.0 mm
07:15 AM 21.8°F-5.7°C 19.3°F-7.1°C 90% Calm Calm -- 30.65 in1037.9 mb 0.00 in0.0 mm 0.00 in0.0 mm 0.00 in0.0 mm
07:20 AM 21.8°F-5.7°C 19.3°F-7.1°C 90% Calm Calm -- 30.65 in1037.9 mb 0.00 in0.0 mm 0.00 in0.0 mm 0.00 in0.0 mm
07:25 AM 21.8°F-5.7°C 19.3°F-7.1°C 90% Calm Calm -- 30.65 in1037.9 mb 0.00 in0.0 mm 0.00 in0.0 mm 0.00 in0.0 mm
07:30 AM 21.9°F-5.6°C 19.4°F-7.0°C 90% Calm Calm -- 30.66 in1038.3 mb 0.00 in0.0 mm 0.00 in0.0 mm 0.00 in0.0 mm
07:35 AM 21.9°F-5.6°C 19.4°F-7.0°C 90% Calm Calm -- 30.66 in1038.3 mb 0.00 in0.0 mm 0.00 in0.0 mm 0.00 in0.0 mm
07:40 AM 21.8°F-5.7°C 19.3°F-7.1°C 90% Calm Calm -- 30.66 in1038.3 mb 0.00 in0.0 mm 0.00 in0.0 mm 0.00 in0.0 mm
07:45 AM 21.8°F-5.7°C 19.3°F-7.1°C 90% Calm Calm -- 30.66 in1038.3 mb 0.00 in0.0 mm 0.00 in0.0 mm 0.00 in0.0 mm
07:50 AM 21.9°F-5.6°C 19.4°F-7.0°C 90% Calm Calm -- 30.67 in1038.6 mb 0.00 in0.0 mm 0.00 in0.0 mm 0.00 in0.0 mm
07:55 AM 21.9°F-5.6°C 19.4°F-7.0°C 90% Calm Calm -- 30.66 in1038.3 mb 0.00 in0.0 mm 0.00 in0.0 mm 0.00 in0.0 mm
08:00 AM 21.8°F-5.7°C 19.3°F-7.1°C 90% Calm Calm -- 30.66 in1038.3 mb 0.00 in0.0 mm 0.00 in0.0 mm 0.00 in0.0 mm
08:05 AM 21.9°F-5.6°C 19.4°F-7.0°C 90% Calm Calm -- 30.66 in1038.3 mb 0.00 in0.0 mm 0.00 in0.0 mm 0.00 in0.0 mm
08:09 AM 21.8°F-5.7°C 19.1°F-7.2°C 89% Calm Calm -- 30.66 in1038.3 mb 0.00 in0.0 mm 0.00 in0.0 mm 0.00 in0.0 mm
08:14 AM 21.7°F-5.7°C 19.0°F-7.2°C 89% Calm Calm -- 30.66 in1038.3 mb 0.00 in0.0 mm 0.00 in0.0 mm 0.00 in0.0 mm
08:20 AM 21.7°F-5.7°C 19.0°F-7.2°C 89% Calm Calm -- 30.67 in1038.6 mb 0.00 in0.0 mm 0.00 in0.0 mm 0.00 in0.0 mm
08:25 AM 21.8°F-5.7°C 19.3°F-7.1°C 90% Calm Calm -- 30.67 in1038.6 mb 0.00 in0.0 mm 0.00 in0.0 mm 0.00 in0.0 mm
08:30 AM 21.8°F-5.7°C 19.1°F-7.2°C 89% Calm Calm -- 30.67 in1038.6 mb 0.00 in0.0 mm 0.00 in0.0 mm 0.00 in0.0 mm
08:34 AM 21.8°F-5.7°C 19.3°F-7.1°C 90% Calm Calm -- 30.67 in1038.6 mb 0.00 in0.0 mm 0.00 in0.0 mm 0.00 in0.0 mm
08:40 AM 21.9°F-5.6°C 19.2°F-7.1°C 89% Calm Calm -- 30.68 in1038.9 mb 0.00 in0.0 mm 0.00 in0.0 mm 0.00 in0.0 mm
08:45 AM 21.9°F-5.6°C 19.2°F-7.1°C 89% Calm Calm -- 30.68 in1038.9 mb 0.00 in0.0 mm 0.00 in0.0 mm 0.00 in0.0 mm
08:50 AM 22.0°F-5.6°C 19.3°F-7.1°C 89% Calm Calm -- 30.68 in1038.9 mb 0.00 in0.0 mm 0.00 in0.0 mm 0.00 in0.0 mm
08:55 AM 22.0°F-5.6°C 19.3°F-7.1°C 89% Calm Calm -- 30.68 in1038.9 mb 0.00 in0.0 mm 0.00 in0.0 mm 0.00 in0.0 mm
09:00 AM 22.0°F-5.6°C 19.3°F-7.1°C 89% Calm Calm -- 30.69 in1039.3 mb 0.00 in0.0 mm 0.00 in0.0 mm 0.00 in0.0 mm
09:04 AM 22.0°F-5.6°C 19.3°F-7.1°C 89% Calm Calm -- 30.69 in1039.3 mb 0.00 in0.0 mm 0.00 in0.0 mm 0.00 in0.0 mm
09:10 AM 22.1°F-5.5°C 19.4°F-7.0°C 89% Calm Calm -- 30.69 in1039.3 mb 0.00 in0.0 mm 0.00 in0.0 mm 0.00 in0.0 mm
09:15 AM 22.1°F-5.5°C 19.4°F-7.0°C 89% Calm Calm -- 30.69 in1039.3 mb 0.00 in0.0 mm 0.00 in0.0 mm 0.00 in0.0 mm
09:20 AM 22.2°F-5.4°C 19.5°F-6.9°C 89% Calm Calm -- 30.70 in1039.6 mb 0.00 in0.0 mm 0.00 in0.0 mm 0.00 in0.0 mm
09:25 AM 22.3°F-5.4°C 19.6°F-6.9°C 89% Calm Calm -- 30.70 in1039.6 mb 0.00 in0.0 mm 0.00 in0.0 mm 0.00 in0.0 mm
09:30 AM 22.5°F-5.3°C 19.8°F-6.8°C 89% Calm Calm -- 30.70 in1039.6 mb 0.00 in0.0 mm 0.00 in0.0 mm 0.00 in0.0 mm
09:35 AM 22.6°F-5.2°C 19.6°F-6.9°C 88% Calm Calm -- 30.70 in1039.6 mb 0.00 in0.0 mm 0.00 in0.0 mm 0.00 in0.0 mm
09:40 AM 22.8°F-5.1°C 19.8°F-6.8°C 88% Calm Calm -- 30.70 in1039.6 mb 0.00 in0.0 mm 0.00 in0.0 mm 0.00 in0.0 mm
09:45 AM 23.1°F-4.9°C 20.1°F-6.6°C 88% Calm Calm -- 30.70 in1039.6 mb 0.00 in0.0 mm 0.00 in0.0 mm 0.00 in0.0 mm
09:50 AM 23.4°F-4.8°C 20.1°F-6.6°C 87% Calm Calm -- 30.70 in1039.6 mb 0.00 in0.0 mm 0.00 in0.0 mm 0.00 in0.0 mm
09:55 AM 23.8°F-4.6°C 20.2°F-6.6°C 86% Calm Calm -- 30.70 in1039.6 mb 0.00 in0.0 mm 0.00 in0.0 mm 0.00 in0.0 mm
10:00 AM 24.3°F-4.3°C 20.7°F-6.3°C 86% Calm Calm 3.0 mph4.8 kmh 30.71 in1040.0 mb 0.00 in0.0 mm 0.00 in0.0 mm 0.00 in0.0 mm
10:05 AM 24.7°F-4.1°C 20.6°F-6.3°C 84% 2.0 mph E3.2 kmh E 3.0 mph4.8 kmh 30.70 in1039.6 mb 0.00 in0.0 mm 0.00 in0.0 mm 0.00 in0.0 mm
10:10 AM 25.0°F-3.9°C 20.0°F-6.7°C 81% 1.0 mph NE1.6 kmh NE 4.0 mph6.4 kmh 30.71 in1040.0 mb 0.00 in0.0 mm 0.00 in0.0 mm 0.00 in0.0 mm
10:15 AM 25.4°F-3.7°C 20.4°F-6.4°C 81% Calm Calm 2.0 mph3.2 kmh 30.70 in1039.6 mb 0.00 in0.0 mm 0.00 in0.0 mm 0.00 in0.0 mm
10:20 AM 26.1°F-3.3°C 21.1°F-6.1°C 81% Calm Calm 2.0 mph3.2 kmh 30.70 in1039.6 mb 0.00 in0.0 mm 0.00 in0.0 mm 0.00 in0.0 mm
10:25 AM 26.7°F-2.9°C 21.4°F-5.9°C 80% Calm Calm 3.0 mph4.8 kmh 30.70 in1039.6 mb 0.00 in0.0 mm 0.00 in0.0 mm 0.00 in0.0 mm
10:30 AM 27.3°F-2.6°C 21.1°F-6.1°C 77% 1.0 mph E1.6 kmh E 2.0 mph3.2 kmh 30.70 in1039.6 mb 0.00 in0.0 mm 0.00 in0.0 mm 0.00 in0.0 mm
10:35 AM 27.8°F-2.3°C 20.9°F-6.2°C 75% 1.0 mph ENE1.6 kmh ENE 3.0 mph4.8 kmh 30.70 in1039.6 mb 0.00 in0.0 mm 0.00 in0.0 mm 0.00 in0.0 mm
10:39 AM 28.2°F-2.1°C 21.0°F-6.1°C 74% Calm Calm 6.0 mph9.7 kmh 30.69 in1039.3 mb 0.00 in0.0 mm 0.00 in0.0 mm 0.00 in0.0 mm
10:45 AM 28.5°F-1.9°C 21.3°F-5.9°C 74% 2.0 mph E3.2 kmh E 4.0 mph6.4 kmh 30.69 in1039.3 mb 0.00 in0.0 mm 0.00 in0.0 mm 0.00 in0.0 mm
10:50 AM 28.8°F-1.8°C 20.9°F-6.2°C 72% 1.0 mph E1.6 kmh E 4.0 mph6.4 kmh 30.69 in1039.3 mb 0.00 in0.0 mm 0.00 in0.0 mm 0.00 in0.0 mm
10:55 AM 29.1°F-1.6°C 21.2°F-6.0°C 72% 1.0 mph SE1.6 kmh SE 1.0 mph1.6 kmh 30.69 in1039.3 mb 0.00 in0.0 mm 0.00 in0.0 mm 0.00 in0.0 mm
11:00 AM 29.4°F-1.4°C 20.8°F-6.2°C 70% 2.0 mph ENE3.2 kmh ENE 4.0 mph6.4 kmh 30.69 in1039.3 mb 0.00 in0.0 mm 0.00 in0.0 mm 0.00 in0.0 mm
11:05 AM 29.4°F-1.4°C 20.2°F-6.6°C 68% Calm Calm 3.0 mph4.8 kmh 30.69 in1039.3 mb 0.00 in0.0 mm 0.00 in0.0 mm 0.00 in0.0 mm
11:10 AM 29.8°F-1.2°C 21.2°F-6.0°C 70% 3.0 mph E4.8 kmh E 4.0 mph6.4 kmh 30.69 in1039.3 mb 0.00 in0.0 mm 0.00 in0.0 mm 0.00 in0.0 mm
11:15 AM 30.1°F-1.1°C 20.8°F-6.2°C 68% 1.0 mph ENE1.6 kmh ENE 4.0 mph6.4 kmh 30.69 in1039.3 mb 0.00 in0.0 mm 0.00 in0.0 mm 0.00 in0.0 mm
11:20 AM 30.5°F-0.8°C 20.9°F-6.2°C 67% Calm Calm 3.0 mph4.8 kmh 30.68 in1038.9 mb 0.00 in0.0 mm 0.00 in0.0 mm 0.00 in0.0 mm
11:24 AM 30.8°F-0.7°C 20.8°F-6.2°C 66% Calm Calm 3.0 mph4.8 kmh 30.69 in1039.3 mb 0.00 in0.0 mm 0.00 in0.0 mm 0.00 in0.0 mm
11:29 AM 30.8°F-0.7°C 20.4°F-6.4°C 65% 1.0 mph ESE1.6 kmh ESE 4.0 mph6.4 kmh 30.68 in1038.9 mb 0.00 in0.0 mm 0.00 in0.0 mm 0.00 in0.0 mm
11:35 AM 31.0°F-0.6°C 20.6°F-6.3°C 65% 4.0 mph ENE6.4 kmh ENE 4.0 mph6.4 kmh 30.68 in1038.9 mb 0.00 in0.0 mm 0.00 in0.0 mm 0.00 in0.0 mm
11:40 AM 31.1°F-0.5°C 20.7°F-6.3°C 65% 1.0 mph SE1.6 kmh SE 8.0 mph12.9 kmh 30.68 in1038.9 mb 0.00 in0.0 mm 0.00 in0.0 mm 0.00 in0.0 mm
11:45 AM 31.4°F-0.3°C 21.0°F-6.1°C 65% 3.0 mph SE4.8 kmh SE 9.0 mph14.5 kmh 30.68 in1038.9 mb 0.00 in0.0 mm 0.00 in0.0 mm 0.00 in0.0 mm
11:50 AM 31.2°F-0.4°C 20.5°F-6.4°C 64% 1.0 mph E1.6 kmh E 7.0 mph11.3 kmh 30.67 in1038.6 mb 0.00 in0.0 mm 0.00 in0.0 mm 0.00 in0.0 mm
11:55 AM 31.2°F-0.4°C 20.5°F-6.4°C 64% 1.0 mph ENE1.6 kmh ENE 4.0 mph6.4 kmh 30.67 in1038.6 mb 0.00 in0.0 mm 0.00 in0.0 mm 0.00 in0.0 mm
12:00 PM 31.3°F-0.4°C 20.9°F-6.2°C 65% 3.0 mph ESE4.8 kmh ESE 5.0 mph8.0 kmh 30.67 in1038.6 mb 0.00 in0.0 mm 0.00 in0.0 mm 0.00 in0.0 mm
12:05 PM 31.4°F-0.3°C 20.7°F-6.3°C 64% 3.0 mph E4.8 kmh E 4.0 mph6.4 kmh 30.67 in1038.6 mb 0.00 in0.0 mm 0.00 in0.0 mm 0.00 in0.0 mm
12:10 PM 31.6°F-0.2°C 20.8°F-6.2°C 64% 7.0 mph ESE11.3 kmh ESE 7.0 mph11.3 kmh 30.67 in1038.6 mb 0.00 in0.0 mm 0.00 in0.0 mm 0.00 in0.0 mm
12:15 PM 31.8°F-0.1°C 21.0°F-6.1°C 64% Calm Calm 9.0 mph14.5 kmh 30.67 in1038.6 mb 0.00 in0.0 mm 0.00 in0.0 mm 0.00 in0.0 mm
12:20 PM 32.2°F0.1°C 21.8°F-5.7°C 65% 1.0 mph E1.6 kmh E 5.0 mph8.0 kmh 30.67 in1038.6 mb 0.00 in0.0 mm 0.00 in0.0 mm 0.00 in0.0 mm
12:25 PM 32.5°F0.3°C 21.3°F-5.9°C 63% 2.0 mph E3.2 kmh E 4.0 mph6.4 kmh 30.67 in1038.6 mb 0.00 in0.0 mm 0.00 in0.0 mm 0.00 in0.0 mm
12:30 PM 32.2°F0.1°C 20.3°F-6.5°C 61% 1.0 mph E1.6 kmh E 11.0 mph17.7 kmh 30.67 in1038.6 mb 0.00 in0.0 mm 0.00 in0.0 mm 0.00 in0.0 mm
12:35 PM 31.9°F-0.1°C 20.4°F-6.4°C 62% Calm Calm 6.0 mph9.7 kmh 30.67 in1038.6 mb 0.00 in0.0 mm 0.00 in0.0 mm 0.00 in0.0 mm
12:40 PM 32.1°F0.1°C 20.6°F-6.3°C 62% 4.0 mph NE6.4 kmh NE 6.0 mph9.7 kmh 30.67 in1038.6 mb 0.00 in0.0 mm 0.00 in0.0 mm 0.00 in0.0 mm
12:44 PM 32.2°F0.1°C 20.7°F-6.3°C 62% 5.0 mph ENE8.0 kmh ENE 6.0 mph9.7 kmh 30.67 in1038.6 mb 0.00 in0.0 mm 0.00 in0.0 mm 0.00 in0.0 mm
12:50 PM 32.5°F0.3°C 21.7°F-5.7°C 64% Calm Calm 4.0 mph6.4 kmh 30.67 in1038.6 mb 0.00 in0.0 mm 0.00 in0.0 mm 0.00 in0.0 mm
12:54 PM 33.0°F0.6°C 21.0°F-6.1°C 61% 2.0 mph E3.2 kmh E 8.0 mph12.9 kmh 30.67 in1038.6 mb 0.00 in0.0 mm 0.00 in0.0 mm 0.00 in0.0 mm
01:00 PM 33.4°F0.8°C 21.4°F-5.9°C 61% 2.0 mph E3.2 kmh E 7.0 mph11.3 kmh 30.67 in1038.6 mb 0.00 in0.0 mm 0.00 in0.0 mm 0.00 in0.0 mm
01:04 PM 33.8°F1.0°C 21.4°F-5.9°C 60% 2.0 mph E3.2 kmh E 6.0 mph9.7 kmh 30.67 in1038.6 mb 0.00 in0.0 mm 0.00 in0.0 mm 0.00 in0.0 mm
01:10 PM 33.9°F1.1°C 21.1°F-6.1°C 59% 5.0 mph NNE8.0 kmh NNE 5.0 mph8.0 kmh 30.66 in1038.3 mb 0.01 in0.3 mm 0.10 in2.5 mm 0.01 in0.3 mm
01:14 PM 33.9°F1.1°C 21.1°F-6.1°C 59% 2.0 mph ENE3.2 kmh ENE 6.0 mph9.7 kmh 30.66 in1038.3 mb 0.01 in0.3 mm 0.00 in0.0 mm 0.01 in0.3 mm
01:20 PM 34.2°F1.2°C 21.8°F-5.7°C 60% Calm Calm 2.0 mph3.2 kmh 30.66 in1038.3 mb 0.01 in0.3 mm 0.00 in0.0 mm 0.01 in0.3 mm
01:25 PM 34.1°F1.2°C 21.7°F-5.7°C 60% 4.0 mph ENE6.4 kmh ENE 5.0 mph8.0 kmh 30.65 in1037.9 mb 0.01 in0.3 mm 0.00 in0.0 mm 0.01 in0.3 mm
01:30 PM 34.1°F1.2°C 21.7°F-5.7°C 60% 2.0 mph E3.2 kmh E 8.0 mph12.9 kmh 30.65 in1037.9 mb 0.01 in0.3 mm 0.00 in0.0 mm 0.01 in0.3 mm
01:35 PM 34.4°F1.3°C 22.4°F-5.3°C 61% 2.0 mph SE3.2 kmh SE 3.0 mph4.8 kmh 30.64 in1037.6 mb 0.01 in0.3 mm 0.00 in0.0 mm 0.01 in0.3 mm
01:40 PM 34.7°F1.5°C 22.3°F-5.4°C 60% Calm Calm 4.0 mph6.4 kmh 30.64 in1037.6 mb 0.01 in0.3 mm 0.00 in0.0 mm 0.01 in0.3 mm
01:45 PM 34.9°F1.6°C 22.4°F-5.3°C 60% 5.0 mph SE8.0 kmh SE 5.0 mph8.0 kmh 30.63 in1037.3 mb 0.01 in0.3 mm 0.00 in0.0 mm 0.01 in0.3 mm
01:50 PM 34.6°F1.4°C 22.2°F-5.4°C 60% 5.0 mph SE8.0 kmh SE 5.0 mph8.0 kmh 30.63 in1037.3 mb 0.01 in0.3 mm 0.00 in0.0 mm 0.01 in0.3 mm
01:55 PM 34.6°F1.4°C 22.2°F-5.4°C 60% Calm Calm 7.0 mph11.3 kmh 30.63 in1037.3 mb 0.01 in0.3 mm 0.00 in0.0 mm 0.01 in0.3 mm
02:00 PM 34.5°F1.4°C 21.3°F-5.9°C 58% Calm Calm 5.0 mph8.0 kmh 30.62 in1036.9 mb 0.01 in0.3 mm 0.00 in0.0 mm 0.01 in0.3 mm
02:05 PM 34.5°F1.4°C 22.1°F-5.5°C 60% 3.0 mph NE4.8 kmh NE 7.0 mph11.3 kmh 30.61 in1036.6 mb 0.01 in0.3 mm 0.00 in0.0 mm 0.01 in0.3 mm
02:09 PM 33.9°F1.1°C 21.1°F-6.1°C 59% 2.0 mph NE3.2 kmh NE 10.0 mph16.1 kmh 30.61 in1036.6 mb 0.00 in0.0 mm 0.00 in0.0 mm 0.01 in0.3 mm
02:15 PM 34.0°F1.1°C 22.4°F-5.3°C 62% 2.0 mph E3.2 kmh E 3.0 mph4.8 kmh 30.61 in1036.6 mb 0.00 in0.0 mm 0.00 in0.0 mm 0.01 in0.3 mm
02:20 PM 34.2°F1.2°C 22.6°F-5.2°C 62% 2.0 mph E3.2 kmh E 6.0 mph9.7 kmh 30.61 in1036.6 mb 0.00 in0.0 mm 0.00 in0.0 mm 0.01 in0.3 mm
02:25 PM 34.4°F1.3°C 22.4°F-5.3°C 61% 1.0 mph E1.6 kmh E 3.0 mph4.8 kmh 30.60 in1036.2 mb 0.00 in0.0 mm 0.00 in0.0 mm 0.01 in0.3 mm
02:29 PM 34.8°F1.6°C 22.7°F-5.2°C 61% 4.0 mph ESE6.4 kmh ESE 4.0 mph6.4 kmh 30.60 in1036.2 mb 0.00 in0.0 mm 0.00 in0.0 mm 0.01 in0.3 mm
02:34 PM 34.9°F1.6°C 22.4°F-5.3°C 60% Calm Calm 5.0 mph8.0 kmh 30.60 in1036.2 mb 0.00 in0.0 mm 0.00 in0.0 mm 0.01 in0.3 mm
02:40 PM 34.7°F1.5°C 22.3°F-5.4°C 60% 6.0 mph ENE9.7 kmh ENE 6.0 mph9.7 kmh 30.60 in1036.2 mb 0.00 in0.0 mm 0.00 in0.0 mm 0.01 in0.3 mm
02:45 PM 34.4°F1.3°C 22.4°F-5.3°C 61% 1.0 mph E1.6 kmh E 6.0 mph9.7 kmh 30.59 in1035.9 mb 0.00 in0.0 mm 0.00 in0.0 mm 0.01 in0.3 mm
02:50 PM 34.6°F1.4°C 22.9°F-5.1°C 62% Calm Calm 3.0 mph4.8 kmh 30.58 in1035.6 mb 0.00 in0.0 mm 0.00 in0.0 mm 0.01 in0.3 mm
02:55 PM 34.6°F1.4°C 22.2°F-5.4°C 60% 2.0 mph E3.2 kmh E 7.0 mph11.3 kmh 30.59 in1035.9 mb 0.00 in0.0 mm 0.00 in0.0 mm 0.01 in0.3 mm
03:00 PM 34.5°F1.4°C 22.8°F-5.1°C 62% Calm Calm 3.0 mph4.8 kmh 30.58 in1035.6 mb 0.00 in0.0 mm 0.00 in0.0 mm 0.01 in0.3 mm
03:05 PM 34.5°F1.4°C 22.5°F-5.3°C 61% 2.0 mph E3.2 kmh E 7.0 mph11.3 kmh 30.58 in1035.6 mb 0.00 in0.0 mm 0.00 in0.0 mm 0.01 in0.3 mm
03:09 PM 34.5°F1.4°C 23.2°F-4.9°C 63% 3.0 mph SE4.8 kmh SE 5.0 mph8.0 kmh 30.58 in1035.6 mb 0.00 in0.0 mm 0.00 in0.0 mm 0.01 in0.3 mm
03:15 PM 34.5°F1.4°C 23.2°F-4.9°C 63% 2.0 mph E3.2 kmh E 4.0 mph6.4 kmh 30.58 in1035.6 mb 0.00 in0.0 mm 0.00 in0.0 mm 0.01 in0.3 mm
03:20 PM 34.7°F1.5°C 23.4°F-4.8°C 63% 6.0 mph E9.7 kmh E 6.0 mph9.7 kmh 30.57 in1035.2 mb 0.00 in0.0 mm 0.00 in0.0 mm 0.01 in0.3 mm
03:25 PM 34.8°F1.6°C 23.9°F-4.5°C 64% 1.0 mph E1.6 kmh E 7.0 mph11.3 kmh 30.57 in1035.2 mb 0.00 in0.0 mm 0.00 in0.0 mm 0.01 in0.3 mm
03:30 PM 34.8°F1.6°C 23.9°F-4.5°C 64% 3.0 mph E4.8 kmh E 3.0 mph4.8 kmh 30.57 in1035.2 mb 0.00 in0.0 mm 0.00 in0.0 mm 0.01 in0.3 mm
03:34 PM 34.8°F1.6°C 23.9°F-4.5°C 64% 2.0 mph NE3.2 kmh NE 5.0 mph8.0 kmh 30.56 in1034.9 mb 0.00 in0.0 mm 0.00 in0.0 mm 0.01 in0.3 mm
03:40 PM 34.7°F1.5°C 23.8°F-4.6°C 64% 2.0 mph E3.2 kmh E 3.0 mph4.8 kmh 30.55 in1034.5 mb 0.00 in0.0 mm 0.00 in0.0 mm 0.01 in0.3 mm
03:45 PM 34.7°F1.5°C 23.8°F-4.6°C 64% 1.0 mph SE1.6 kmh SE 5.0 mph8.0 kmh 30.55 in1034.5 mb 0.00 in0.0 mm 0.00 in0.0 mm 0.01 in0.3 mm
03:50 PM 34.7°F1.5°C 23.8°F-4.6°C 64% 1.0 mph NE1.6 kmh NE 6.0 mph9.7 kmh 30.55 in1034.5 mb 0.00 in0.0 mm 0.00 in0.0 mm 0.01 in0.3 mm
03:55 PM 34.6°F1.4°C 23.7°F-4.6°C 64% 2.0 mph SE3.2 kmh SE 6.0 mph9.7 kmh 30.55 in1034.5 mb 0.00 in0.0 mm 0.00 in0.0 mm 0.01 in0.3 mm
04:00 PM 34.6°F1.4°C 23.7°F-4.6°C 64% 3.0 mph E4.8 kmh E 4.0 mph6.4 kmh 30.54 in1034.2 mb 0.00 in0.0 mm 0.00 in0.0 mm 0.01 in0.3 mm
04:04 PM 34.6°F1.4°C 24.1°F-4.4°C 65% 3.0 mph E4.8 kmh E 5.0 mph8.0 kmh 30.54 in1034.2 mb 0.00 in0.0 mm 0.00 in0.0 mm 0.01 in0.3 mm
04:10 PM 34.3°F1.3°C 23.4°F-4.8°C 64% Calm Calm 11.0 mph17.7 kmh 30.55 in1034.5 mb 0.00 in0.0 mm 0.00 in0.0 mm 0.01 in0.3 mm
04:14 PM 34.3°F1.3°C 23.8°F-4.6°C 65% 1.0 mph ENE1.6 kmh ENE 3.0 mph4.8 kmh 30.54 in1034.2 mb 0.00 in0.0 mm 0.00 in0.0 mm 0.01 in0.3 mm
04:20 PM 34.2°F1.2°C 23.7°F-4.6°C 65% 1.0 mph SE1.6 kmh SE 9.0 mph14.5 kmh 30.54 in1034.2 mb 0.00 in0.0 mm 0.00 in0.0 mm 0.01 in0.3 mm
04:25 PM 34.3°F1.3°C 23.8°F-4.6°C 65% Calm Calm 4.0 mph6.4 kmh 30.54 in1034.2 mb 0.00 in0.0 mm 0.00 in0.0 mm 0.01 in0.3 mm
04:30 PM 34.3°F1.3°C 23.8°F-4.6°C 65% 1.0 mph E1.6 kmh E 4.0 mph6.4 kmh 30.54 in1034.2 mb 0.00 in0.0 mm 0.00 in0.0 mm 0.01 in0.3 mm
04:34 PM 34.3°F1.3°C 23.4°F-4.8°C 64% Calm Calm 7.0 mph11.3 kmh 30.54 in1034.2 mb 0.00 in0.0 mm 0.00 in0.0 mm 0.01 in0.3 mm
04:40 PM 34.3°F1.3°C 23.8°F-4.6°C 65% 2.0 mph E3.2 kmh E 5.0 mph8.0 kmh 30.54 in1034.2 mb 0.00 in0.0 mm 0.00 in0.0 mm 0.01 in0.3 mm
04:45 PM 34.2°F1.2°C 23.7°F-4.6°C 65% 3.0 mph ENE4.8 kmh ENE 7.0 mph11.3 kmh 30.54 in1034.2 mb 0.00 in0.0 mm 0.00 in0.0 mm 0.01 in0.3 mm
04:50 PM 34.2°F1.2°C 24.0°F-4.4°C 66% 2.0 mph E3.2 kmh E 7.0 mph11.3 kmh 30.54 in1034.2 mb 0.00 in0.0 mm 0.00 in0.0 mm 0.01 in0.3 mm
04:55 PM 34.3°F1.3°C 24.1°F-4.4°C 66% Calm Calm 6.0 mph9.7 kmh 30.54 in1034.2 mb 0.00 in0.0 mm 0.00 in0.0 mm 0.01 in0.3 mm
05:00 PM 34.2°F1.2°C 24.0°F-4.4°C 66% 2.0 mph SE3.2 kmh SE 9.0 mph14.5 kmh 30.54 in1034.2 mb 0.00 in0.0 mm 0.00 in0.0 mm 0.01 in0.3 mm
05:05 PM 34.0°F1.1°C 23.9°F-4.5°C 66% 4.0 mph ENE6.4 kmh ENE 9.0 mph14.5 kmh 30.53 in1033.9 mb 0.00 in0.0 mm 0.00 in0.0 mm 0.01 in0.3 mm
05:09 PM 34.0°F1.1°C 23.9°F-4.5°C 66% 1.0 mph ESE1.6 kmh ESE 9.0 mph14.5 kmh 30.53 in1033.9 mb 0.00 in0.0 mm 0.00 in0.0 mm 0.01 in0.3 mm
05:15 PM 34.1°F1.2°C 24.0°F-4.4°C 66% 3.0 mph ENE4.8 kmh ENE 7.0 mph11.3 kmh 30.53 in1033.9 mb 0.00 in0.0 mm 0.00 in0.0 mm 0.01 in0.3 mm
05:20 PM 34.1°F1.2°C 24.0°F-4.4°C 66% Calm Calm 5.0 mph8.0 kmh 30.53 in1033.9 mb 0.00 in0.0 mm 0.00 in0.0 mm 0.01 in0.3 mm
05:25 PM 34.2°F1.2°C 24.4°F-4.2°C 67% 6.0 mph ENE9.7 kmh ENE 6.0 mph9.7 kmh 30.52 in1033.5 mb 0.00 in0.0 mm 0.00 in0.0 mm 0.01 in0.3 mm
05:30 PM 34.1°F1.2°C 24.0°F-4.4°C 66% 6.0 mph E9.7 kmh E 8.0 mph12.9 kmh 30.52 in1033.5 mb 0.00 in0.0 mm 0.00 in0.0 mm 0.01 in0.3 mm
05:35 PM 34.1°F1.2°C 24.3°F-4.3°C 67% 1.0 mph ESE1.6 kmh ESE 7.0 mph11.3 kmh 30.52 in1033.5 mb 0.00 in0.0 mm 0.00 in0.0 mm 0.01 in0.3 mm
05:40 PM 34.1°F1.2°C 24.3°F-4.3°C 67% Calm Calm 8.0 mph12.9 kmh 30.52 in1033.5 mb 0.00 in0.0 mm 0.00 in0.0 mm 0.01 in0.3 mm
05:45 PM 34.1°F1.2°C 24.7°F-4.1°C 68% 1.0 mph ESE1.6 kmh ESE 6.0 mph9.7 kmh 30.52 in1033.5 mb 0.00 in0.0 mm 0.00 in0.0 mm 0.01 in0.3 mm
05:50 PM 34.1°F1.2°C 24.7°F-4.1°C 68% 4.0 mph ESE6.4 kmh ESE 4.0 mph6.4 kmh 30.52 in1033.5 mb 0.00 in0.0 mm 0.00 in0.0 mm 0.01 in0.3 mm
05:55 PM 34.1°F1.2°C 24.7°F-4.1°C 68% 2.0 mph E3.2 kmh E 10.0 mph16.1 kmh 30.52 in1033.5 mb 0.00 in0.0 mm 0.00 in0.0 mm 0.01 in0.3 mm
06:00 PM 34.1°F1.2°C 24.7°F-4.1°C 68% 1.0 mph E1.6 kmh E 6.0 mph9.7 kmh 30.52 in1033.5 mb 0.00 in0.0 mm 0.00 in0.0 mm 0.01 in0.3 mm
06:05 PM 34.1°F1.2°C 25.0°F-3.9°C 69% 2.0 mph E3.2 kmh E 5.0 mph8.0 kmh 30.52 in1033.5 mb 0.00 in0.0 mm 0.00 in0.0 mm 0.01 in0.3 mm
06:10 PM 34.2°F1.2°C 25.1°F-3.8°C 69% 5.0 mph SE8.0 kmh SE 5.0 mph8.0 kmh 30.52 in1033.5 mb 0.00 in0.0 mm 0.00 in0.0 mm 0.01 in0.3 mm
06:14 PM 34.1°F1.2°C 24.7°F-4.1°C 68% 3.0 mph ENE4.8 kmh ENE 9.0 mph14.5 kmh 30.51 in1033.2 mb 0.00 in0.0 mm 0.00 in0.0 mm 0.01 in0.3 mm
06:20 PM 34.1°F1.2°C 24.7°F-4.1°C 68% 3.0 mph ENE4.8 kmh ENE 6.0 mph9.7 kmh 30.51 in1033.2 mb 0.00 in0.0 mm 0.00 in0.0 mm 0.01 in0.3 mm
06:24 PM 34.0°F1.1°C 24.6°F-4.1°C 68% 4.0 mph ENE6.4 kmh ENE 7.0 mph11.3 kmh 30.51 in1033.2 mb 0.00 in0.0 mm 0.00 in0.0 mm 0.01 in0.3 mm
06:29 PM 33.9°F1.1°C 24.5°F-4.2°C 68% 8.0 mph E12.9 kmh E 10.0 mph16.1 kmh 30.50 in1032.8 mb 0.00 in0.0 mm 0.00 in0.0 mm 0.01 in0.3 mm
06:35 PM 33.8°F1.0°C 24.7°F-4.1°C 69% 4.0 mph NE6.4 kmh NE 4.0 mph6.4 kmh 30.50 in1032.8 mb 0.00 in0.0 mm 0.00 in0.0 mm 0.01 in0.3 mm
06:39 PM 33.7°F0.9°C 24.6°F-4.1°C 69% Calm Calm 4.0 mph6.4 kmh 30.50 in1032.8 mb 0.00 in0.0 mm 0.00 in0.0 mm 0.01 in0.3 mm
06:45 PM 33.7°F0.9°C 24.6°F-4.1°C 69% 3.0 mph E4.8 kmh E 8.0 mph12.9 kmh 30.50 in1032.8 mb 0.00 in0.0 mm 0.00 in0.0 mm 0.01 in0.3 mm
06:50 PM 33.6°F0.9°C 24.5°F-4.2°C 69% 1.0 mph ESE1.6 kmh ESE 9.0 mph14.5 kmh 30.50 in1032.8 mb 0.00 in0.0 mm 0.00 in0.0 mm 0.01 in0.3 mm
06:55 PM 33.6°F0.9°C 24.5°F-4.2°C 69% 1.0 mph ESE1.6 kmh ESE 4.0 mph6.4 kmh 30.49 in1032.5 mb 0.00 in0.0 mm 0.00 in0.0 mm 0.01 in0.3 mm
07:00 PM 33.5°F0.8°C 24.4°F-4.2°C 69% Calm Calm 4.0 mph6.4 kmh 30.49 in1032.5 mb 0.00 in0.0 mm 0.00 in0.0 mm 0.01 in0.3 mm
07:05 PM 33.4°F0.8°C 24.3°F-4.3°C 69% 2.0 mph ENE3.2 kmh ENE 7.0 mph11.3 kmh 30.49 in1032.5 mb 0.00 in0.0 mm 0.00 in0.0 mm 0.01 in0.3 mm
07:10 PM 33.4°F0.8°C 24.7°F-4.1°C 70% 5.0 mph E8.0 kmh E 5.0 mph8.0 kmh 30.49 in1032.5 mb 0.00 in0.0 mm 0.00 in0.0 mm 0.01 in0.3 mm
07:15 PM 33.3°F0.7°C 24.2°F-4.3°C 69% 3.0 mph ESE4.8 kmh ESE 7.0 mph11.3 kmh 30.49 in1032.5 mb 0.00 in0.0 mm 0.00 in0.0 mm 0.01 in0.3 mm
07:19 PM 33.2°F0.7°C 24.2°F-4.3°C 69% Calm Calm 9.0 mph14.5 kmh 30.49 in1032.5 mb 0.00 in0.0 mm 0.00 in0.0 mm 0.01 in0.3 mm
07:24 PM 33.2°F0.7°C 24.2°F-4.3°C 69% 2.0 mph E3.2 kmh E 3.0 mph4.8 kmh 30.49 in1032.5 mb 0.00 in0.0 mm 0.00 in0.0 mm 0.01 in0.3 mm
07:30 PM 33.1°F0.6°C 24.1°F-4.4°C 69% Calm Calm 9.0 mph14.5 kmh 30.50 in1032.8 mb 0.00 in0.0 mm 0.00 in0.0 mm 0.01 in0.3 mm
07:35 PM 33.1°F0.6°C 24.4°F-4.2°C 70% 2.0 mph ENE3.2 kmh ENE 2.0 mph3.2 kmh 30.49 in1032.5 mb 0.00 in0.0 mm 0.00 in0.0 mm 0.01 in0.3 mm
07:40 PM 33.0°F0.6°C 24.3°F-4.3°C 70% Calm Calm 7.0 mph11.3 kmh 30.49 in1032.5 mb 0.00 in0.0 mm 0.00 in0.0 mm 0.01 in0.3 mm
07:45 PM 33.0°F0.6°C 24.3°F-4.3°C 70% Calm Calm 8.0 mph12.9 kmh 30.48 in1032.2 mb 0.00 in0.0 mm 0.00 in0.0 mm 0.01 in0.3 mm
07:50 PM 33.0°F0.6°C 24.3°F-4.3°C 70% 1.0 mph E1.6 kmh E 10.0 mph16.1 kmh 30.48 in1032.2 mb 0.00 in0.0 mm 0.00 in0.0 mm 0.01 in0.3 mm
07:55 PM 33.0°F0.6°C 24.3°F-4.3°C 70% Calm Calm 4.0 mph6.4 kmh 30.47 in1031.8 mb 0.00 in0.0 mm 0.00 in0.0 mm 0.01 in0.3 mm
08:00 PM 32.9°F0.5°C 24.2°F-4.3°C 70% Calm Calm 6.0 mph9.7 kmh 30.47 in1031.8 mb 0.00 in0.0 mm 0.00 in0.0 mm 0.01 in0.3 mm
08:05 PM 32.9°F0.5°C 24.2°F-4.3°C 70% 2.0 mph ENE3.2 kmh ENE 6.0 mph9.7 kmh 30.47 in1031.8 mb 0.00 in0.0 mm 0.00 in0.0 mm 0.01 in0.3 mm
08:10 PM 32.9°F0.5°C 24.2°F-4.3°C 70% 2.0 mph ENE3.2 kmh ENE 7.0 mph11.3 kmh 30.47 in1031.8 mb 0.00 in0.0 mm 0.00 in0.0 mm 0.01 in0.3 mm
08:15 PM 32.9°F0.5°C 24.2°F-4.3°C 70% Calm Calm 4.0 mph6.4 kmh 30.46 in1031.5 mb 0.00 in0.0 mm 0.00 in0.0 mm 0.01 in0.3 mm
08:20 PM 32.9°F0.5°C 24.5°F-4.2°C 71% Calm Calm 4.0 mph6.4 kmh 30.46 in1031.5 mb 0.00 in0.0 mm 0.00 in0.0 mm 0.01 in0.3 mm
08:25 PM 32.9°F0.5°C 24.5°F-4.2°C 71% 2.0 mph NNE3.2 kmh NNE 6.0 mph9.7 kmh 30.46 in1031.5 mb 0.00 in0.0 mm 0.00 in0.0 mm 0.01 in0.3 mm
08:30 PM 32.8°F0.4°C 24.5°F-4.2°C 71% 3.0 mph E4.8 kmh E 4.0 mph6.4 kmh 30.46 in1031.5 mb 0.00 in0.0 mm 0.00 in0.0 mm 0.01 in0.3 mm
08:35 PM 32.8°F0.4°C 24.5°F-4.2°C 71% 2.0 mph ENE3.2 kmh ENE 5.0 mph8.0 kmh 30.46 in1031.5 mb 0.00 in0.0 mm 0.00 in0.0 mm 0.01 in0.3 mm
08:39 PM 32.9°F0.5°C 24.5°F-4.2°C 71% 3.0 mph NE4.8 kmh NE 5.0 mph8.0 kmh 30.46 in1031.5 mb 0.00 in0.0 mm 0.00 in0.0 mm 0.01 in0.3 mm
08:45 PM 32.9°F0.5°C 24.9°F-3.9°C 72% Calm Calm 6.0 mph9.7 kmh 30.45 in1031.2 mb 0.00 in0.0 mm 0.00 in0.0 mm 0.01 in0.3 mm
08:50 PM 32.9°F0.5°C 24.9°F-3.9°C 72% 1.0 mph ENE1.6 kmh ENE 6.0 mph9.7 kmh 30.46 in1031.5 mb 0.00 in0.0 mm 0.00 in0.0 mm 0.01 in0.3 mm
08:55 PM 32.9°F0.5°C 24.9°F-3.9°C 72% 3.0 mph E4.8 kmh E 6.0 mph9.7 kmh 30.45 in1031.2 mb 0.00 in0.0 mm 0.00 in0.0 mm 0.01 in0.3 mm
08:59 PM 32.9°F0.5°C 24.9°F-3.9°C 72% 4.0 mph E6.4 kmh E 7.0 mph11.3 kmh 30.45 in1031.2 mb 0.00 in0.0 mm 0.00 in0.0 mm 0.01 in0.3 mm
09:04 PM 32.9°F0.5°C 24.9°F-3.9°C 72% Calm Calm 3.0 mph4.8 kmh 30.45 in1031.2 mb 0.00 in0.0 mm 0.00 in0.0 mm 0.01 in0.3 mm
09:10 PM 32.9°F0.5°C 24.9°F-3.9°C 72% 3.0 mph NE4.8 kmh NE 7.0 mph11.3 kmh 30.45 in1031.2 mb 0.00 in0.0 mm 0.00 in0.0 mm 0.01 in0.3 mm
09:14 PM 32.9°F0.5°C 24.9°F-3.9°C 72% 3.0 mph ENE4.8 kmh ENE 10.0 mph16.1 kmh 30.44 in1030.8 mb 0.00 in0.0 mm 0.00 in0.0 mm 0.01 in0.3 mm
09:20 PM 32.9°F0.5°C 24.9°F-3.9°C 72% Calm Calm 7.0 mph11.3 kmh 30.44 in1030.8 mb 0.00 in0.0 mm 0.00 in0.0 mm 0.01 in0.3 mm
09:25 PM 33.0°F0.6°C 25.0°F-3.9°C 72% Calm Calm 9.0 mph14.5 kmh 30.44 in1030.8 mb 0.00 in0.0 mm 0.00 in0.0 mm 0.01 in0.3 mm
09:30 PM 33.0°F0.6°C 25.0°F-3.9°C 72% 2.0 mph ENE3.2 kmh ENE 3.0 mph4.8 kmh 30.44 in1030.8 mb 0.00 in0.0 mm 0.00 in0.0 mm 0.01 in0.3 mm
09:35 PM 33.0°F0.6°C 25.0°F-3.9°C 72% 4.0 mph NE6.4 kmh NE 8.0 mph12.9 kmh 30.43 in1030.5 mb 0.00 in0.0 mm 0.00 in0.0 mm 0.01 in0.3 mm
09:39 PM 33.0°F0.6°C 25.0°F-3.9°C 72% Calm Calm 7.0 mph11.3 kmh 30.43 in1030.5 mb 0.00 in0.0 mm 0.00 in0.0 mm 0.01 in0.3 mm
09:45 PM 33.0°F0.6°C 25.0°F-3.9°C 72% 2.0 mph E3.2 kmh E 7.0 mph11.3 kmh 30.43 in1030.5 mb 0.00 in0.0 mm 0.00 in0.0 mm 0.01 in0.3 mm
09:49 PM 33.0°F0.6°C 25.0°F-3.9°C 72% 5.0 mph E8.0 kmh E 8.0 mph12.9 kmh 30.43 in1030.5 mb 0.00 in0.0 mm 0.00 in0.0 mm 0.01 in0.3 mm
09:55 PM 33.0°F0.6°C 25.0°F-3.9°C 72% 3.0 mph E4.8 kmh E 4.0 mph6.4 kmh 30.42 in1030.1 mb 0.00 in0.0 mm 0.00 in0.0 mm 0.01 in0.3 mm
10:00 PM 33.1°F0.6°C 25.1°F-3.8°C 72% Calm Calm 9.0 mph14.5 kmh 30.42 in1030.1 mb 0.00 in0.0 mm 0.00 in0.0 mm 0.01 in0.3 mm
10:05 PM 33.1°F0.6°C 25.1°F-3.8°C 72% Calm Calm 9.0 mph14.5 kmh 30.42 in1030.1 mb 0.00 in0.0 mm 0.00 in0.0 mm 0.01 in0.3 mm
10:10 PM 33.2°F0.7°C 25.5°F-3.6°C 73% 1.0 mph ENE1.6 kmh ENE 9.0 mph14.5 kmh 30.43 in1030.5 mb 0.00 in0.0 mm 0.00 in0.0 mm 0.01 in0.3 mm
10:15 PM 33.2°F0.7°C 25.5°F-3.6°C 73% Calm Calm 3.0 mph4.8 kmh 30.42 in1030.1 mb 0.00 in0.0 mm 0.00 in0.0 mm 0.01 in0.3 mm
10:20 PM 33.2°F0.7°C 25.5°F-3.6°C 73% Calm Calm 5.0 mph8.0 kmh 30.42 in1030.1 mb 0.00 in0.0 mm 0.00 in0.0 mm 0.01 in0.3 mm
10:25 PM 33.2°F0.7°C 25.5°F-3.6°C 73% Calm Calm 8.0 mph12.9 kmh 30.42 in1030.1 mb 0.00 in0.0 mm 0.00 in0.0 mm 0.01 in0.3 mm
10:30 PM 33.2°F0.7°C 25.5°F-3.6°C 73% 5.0 mph NE8.0 kmh NE 7.0 mph11.3 kmh 30.42 in1030.1 mb 0.00 in0.0 mm 0.00 in0.0 mm 0.01 in0.3 mm
10:35 PM 33.2°F0.7°C 25.5°F-3.6°C 73% Calm Calm 4.0 mph6.4 kmh 30.42 in1030.1 mb 0.00 in0.0 mm 0.00 in0.0 mm 0.01 in0.3 mm
10:40 PM 33.2°F0.7°C 25.8°F-3.4°C 74% Calm Calm 5.0 mph8.0 kmh 30.42 in1030.1 mb 0.00 in0.0 mm 0.00 in0.0 mm 0.01 in0.3 mm
10:45 PM 33.3°F0.7°C 25.9°F-3.4°C 74% 3.0 mph E4.8 kmh E 4.0 mph6.4 kmh 30.42 in1030.1 mb 0.00 in0.0 mm 0.00 in0.0 mm 0.01 in0.3 mm
10:49 PM 33.3°F0.7°C 25.9°F-3.4°C 74% 3.0 mph E4.8 kmh E 7.0 mph11.3 kmh 30.41 in1029.8 mb 0.00 in0.0 mm 0.00 in0.0 mm 0.01 in0.3 mm
10:55 PM 33.3°F0.7°C 25.9°F-3.4°C 74% Calm Calm 4.0 mph6.4 kmh 30.41 in1029.8 mb 0.00 in0.0 mm 0.00 in0.0 mm 0.01 in0.3 mm
11:00 PM 33.3°F0.7°C 25.9°F-3.4°C 74% Calm Calm 4.0 mph6.4 kmh 30.41 in1029.8 mb 0.00 in0.0 mm 0.00 in0.0 mm 0.01 in0.3 mm
11:05 PM 33.3°F0.7°C 25.9°F-3.4°C 74% 2.0 mph ENE3.2 kmh ENE 5.0 mph8.0 kmh 30.40 in1029.5 mb 0.00 in0.0 mm 0.00 in0.0 mm 0.01 in0.3 mm
11:10 PM 33.3°F0.7°C 25.9°F-3.4°C 74% 2.0 mph ENE3.2 kmh ENE 6.0 mph9.7 kmh 30.40 in1029.5 mb 0.00 in0.0 mm 0.00 in0.0 mm 0.01 in0.3 mm
11:15 PM 33.3°F0.7°C 26.3°F-3.2°C 75% 3.0 mph ENE4.8 kmh ENE 7.0 mph11.3 kmh 30.40 in1029.5 mb 0.00 in0.0 mm 0.00 in0.0 mm 0.01 in0.3 mm
11:19 PM 33.3°F0.7°C 26.3°F-3.2°C 75% 4.0 mph E6.4 kmh E 5.0 mph8.0 kmh 30.40 in1029.5 mb 0.00 in0.0 mm 0.00 in0.0 mm 0.01 in0.3 mm
11:25 PM 33.2°F0.7°C 26.2°F-3.2°C 75% 3.0 mph ENE4.8 kmh ENE 8.0 mph12.9 kmh 30.40 in1029.5 mb 0.00 in0.0 mm 0.00 in0.0 mm 0.01 in0.3 mm
11:30 PM 33.2°F0.7°C 26.2°F-3.2°C 75% 5.0 mph NE8.0 kmh NE 5.0 mph8.0 kmh 30.39 in1029.1 mb 0.00 in0.0 mm 0.00 in0.0 mm 0.01 in0.3 mm
11:35 PM 33.2°F0.7°C 26.2°F-3.2°C 75% 1.0 mph E1.6 kmh E 8.0 mph12.9 kmh 30.39 in1029.1 mb 0.00 in0.0 mm 0.00 in0.0 mm 0.01 in0.3 mm
11:40 PM 33.2°F0.7°C 26.2°F-3.2°C 75% Calm Calm 7.0 mph11.3 kmh 30.38 in1028.8 mb 0.00 in0.0 mm 0.00 in0.0 mm 0.01 in0.3 mm
11:45 PM 33.2°F0.7°C 26.2°F-3.2°C 75% 2.0 mph ENE3.2 kmh ENE 8.0 mph12.9 kmh 30.38 in1028.8 mb 0.00 in0.0 mm 0.00 in0.0 mm 0.01 in0.3 mm
11:50 PM 33.1°F0.6°C 26.1°F-3.3°C 75% Calm Calm 8.0 mph12.9 kmh 30.37 in1028.4 mb 0.00 in0.0 mm 0.00 in0.0 mm 0.01 in0.3 mm
11:55 PM 33.1°F0.6°C 26.1°F-3.3°C 75% 3.0 mph NE4.8 kmh NE 7.0 mph11.3 kmh 30.37 in1028.4 mb 0.00 in0.0 mm 0.00 in0.0 mm 0.01 in0.3 mm
11:59 PM 33.1°F0.6°C 26.1°F-3.3°C 75% 6.0 mph E9.7 kmh E 6.0 mph9.7 kmh 30.38 in1028.8 mb 0.00 in0.0 mm 0.00 in0.0 mm 0.01 in0.3 mm